Time;durP1;ratioP1;P1;durP2;ratioP2;P2;SDS_P1;SDS_P2;PMS_P1;PMS_P2;Temp;Humidity;BMP_temperature;BMP_pressure;BME280_temperature;BME280_humidity;BME280_pressure;Samples;Min_cycle;Max_cycle;Signal;HPM_P1;HPM_P2
2022/05/30 00:00:50;;;;;;;13.97;12.20;;;;;;;;;;5003034;28;20755;-70
2022/05/30 00:03:19;;;;;;;13.63;11.90;;;;;;;;;;5001267;28;20277;-70
2022/05/30 00:05:47;;;;;;;13.67;12.17;;;;;;;;;;5007748;28;20685;-69
2022/05/30 00:08:17;;;;;;;14.87;12.10;;;;;;;;;;5002371;28;20234;-70
2022/05/30 00:10:44;;;;;;;14.73;12.77;;;;;;;;;;5000758;28;20289;-70
2022/05/30 00:13:12;;;;;;;16.50;12.93;;;;;;;;;;5001870;28;20237;-69
2022/05/30 00:15:39;;;;;;;16.17;14.20;;;;;;;;;;5000901;28;20588;-70
2022/05/30 00:18:09;;;;;;;17.80;13.50;;;;;;;;;;5001385;28;20586;-70
2022/05/30 00:20:36;;;;;;;16.00;13.47;;;;;;;;;;4999243;28;20718;-69
2022/05/30 00:23:03;;;;;;;16.37;13.87;;;;;;;;;;5002857;28;20239;-70
2022/05/30 00:25:30;;;;;;;16.17;13.90;;;;;;;;;;4996292;28;20238;-70
2022/05/30 00:27:56;;;;;;;23.97;19.03;;;;;;;;;;4996056;28;20243;-69
2022/05/30 00:30:23;;;;;;;20.27;16.17;;;;;;;;;;5000371;28;20222;-70
2022/05/30 00:32:51;;;;;;;17.90;15.03;;;;;;;;;;5002222;28;20273;-70
2022/05/30 00:35:17;;;;;;;22.50;17.47;;;;;;;;;;5000403;28;20219;-70
2022/05/30 00:37:44;;;;;;;19.77;16.10;;;;;;;;;;5002341;28;20233;-69
2022/05/30 00:40:11;;;;;;;21.53;16.60;;;;;;;;;;4995023;28;20810;-70
2022/05/30 00:42:38;;;;;;;19.10;15.60;;;;;;;;;;4999798;28;20234;-70
2022/05/30 00:45:04;;;;;;;17.60;14.80;;;;;;;;;;4998722;28;20231;-69
2022/05/30 00:47:31;;;;;;;19.43;15.10;;;;;;;;;;5002177;28;20630;-70
2022/05/30 00:49:58;;;;;;;18.50;14.27;;;;;;;;;;5000201;28;20232;-70
2022/05/30 00:52:26;;;;;;;17.83;14.30;;;;;;;;;;4999736;28;20234;-70
2022/05/30 00:54:54;;;;;;;19.53;15.97;;;;;;;;;;4995637;28;20242;-69
2022/05/30 00:57:21;;;;;;;22.83;17.67;;;;;;;;;;4988363;28;20231;-70
2022/05/30 00:59:59;;;;;;;29.50;20.60;;;;;;;;;;4986854;28;20224;-70
2022/05/30 01:02:29;;;;;;;27.53;19.47;;;;;;;;;;4993697;28;20246;-70
2022/05/30 01:07:42;;;;;;;22.30;18.10;;;;;;;;;;4973182;28;224472;-70
2022/05/30 01:10:27;;;;;;;22.77;17.97;;;;;;;;;;4977815;28;23320;-70
2022/05/30 01:12:55;;;;;;;23.70;18.03;;;;;;;;;;4972332;28;20247;-70
2022/05/30 01:15:26;;;;;;;21.80;17.53;;;;;;;;;;4980325;28;20319;-70
2022/05/30 01:18:00;;;;;;;24.20;17.80;;;;;;;;;;4960037;28;20650;-70
2022/05/30 01:20:53;;;;;;;22.90;17.43;;;;;;;;;;4976016;28;20251;-70
2022/05/30 01:23:23;;;;;;;23.47;17.47;;;;;;;;;;4957838;28;20266;-70
2022/05/30 01:26:25;;;;;;;25.20;18.60;;;;;;;;;;4975784;28;20309;-70
2022/05/30 01:28:59;;;;;;;26.87;19.57;;;;;;;;;;4921878;28;20308;-70
2022/05/30 01:31:28;;;;;;;33.47;21.30;;;;;;;;;;4986910;28;20580;-70
2022/05/30 01:33:56;;;;;;;36.37;22.30;;;;;;;;;;4976721;28;20232;-70
2022/05/30 01:36:23;;;;;;;40.63;23.80;;;;;;;;;;4976524;28;20232;-70
2022/05/30 01:38:51;;;;;;;28.27;18.37;;;;;;;;;;4997521;28;20223;-70
2022/05/30 01:41:30;;;;;;;31.13;18.60;;;;;;;;;;4998046;28;20239;-70
2022/05/30 01:43:57;;;;;;;34.50;20.33;;;;;;;;;;4999973;28;20593;-70
2022/05/30 01:46:24;;;;;;;31.27;19.40;;;;;;;;;;4997317;28;20241;-70
2022/05/30 01:48:53;;;;;;;30.23;18.20;;;;;;;;;;4999569;28;21489;-70
2022/05/30 01:51:21;;;;;;;38.27;20.40;;;;;;;;;;4997439;28;20230;-70
2022/05/30 01:53:52;;;;;;;37.87;20.10;;;;;;;;;;4996965;28;20284;-70
2022/05/30 01:56:22;;;;;;;35.47;18.87;;;;;;;;;;4999025;28;20226;-70
2022/05/30 01:59:07;;;;;;;33.10;20.10;;;;;;;;;;4984102;28;20297;-70
2022/05/30 02:01:51;;;;;;;35.90;20.27;;;;;;;;;;4999825;28;20234;-70
2022/05/30 02:04:18;;;;;;;39.70;20.73;;;;;;;;;;4997935;28;20234;-70
2022/05/30 02:06:45;;;;;;;40.07;22.43;;;;;;;;;;4998685;28;20223;-70
2022/05/30 02:09:13;;;;;;;40.83;21.30;;;;;;;;;;4996786;28;20250;-70
2022/05/30 02:11:40;;;;;;;38.57;20.90;;;;;;;;;;4998355;28;20247;-70
2022/05/30 02:14:24;;;;;;;41.47;23.40;;;;;;;;;;4977650;28;20251;-70
2022/05/30 02:17:06;;;;;;;51.73;24.07;;;;;;;;;;4979514;28;20643;-70
2022/05/30 02:19:38;;;;;;;52.67;25.57;;;;;;;;;;4977426;28;20231;-70
2022/05/30 02:22:09;;;;;;;58.83;26.03;;;;;;;;;;4977918;28;20235;-70
2022/05/30 02:24:38;;;;;;;56.17;26.43;;;;;;;;;;4960844;28;20232;-70
2022/05/30 02:27:08;;;;;;;55.27;25.40;;;;;;;;;;4995442;28;20254;-70
2022/05/30 02:29:35;;;;;;;57.77;24.87;;;;;;;;;;4996046;28;20302;-70
2022/05/30 02:32:04;;;;;;;49.10;23.80;;;;;;;;;;4997110;28;20236;-70
2022/05/30 02:37:19;;;;;;;47.57;23.20;;;;;;;;;;4979298;28;20238;-70
2022/05/30 02:39:46;;;;;;;50.17;23.13;;;;;;;;;;5001854;28;20231;-70
2022/05/30 02:42:32;;;;;;;48.23;23.27;;;;;;;;;;5001503;28;20226;-70
2022/05/30 02:45:01;;;;;;;49.77;23.27;;;;;;;;;;5000018;28;20227;-70
2022/05/30 02:47:28;;;;;;;53.60;23.97;;;;;;;;;;5000562;28;20844;-70
2022/05/30 02:50:03;;;;;;;50.57;23.47;;;;;;;;;;5002903;28;20320;-70
2022/05/30 02:52:30;;;;;;;56.47;24.40;;;;;;;;;;4986055;28;21093;-70
2022/05/30 02:54:57;;;;;;;48.00;22.47;;;;;;;;;;4980153;28;20375;-71
2022/05/30 02:57:32;;;;;;;53.57;23.07;;;;;;;;;;4982042;28;20231;-71
2022/05/30 03:00:00;;;;;;;46.83;22.23;;;;;;;;;;4980109;28;20236;-71
2022/05/30 03:02:30;;;;;;;54.50;22.60;;;;;;;;;;4978610;28;20219;-69
2022/05/30 03:04:58;;;;;;;48.73;23.10;;;;;;;;;;4967271;28;20299;-70
2022/05/30 03:07:25;;;;;;;47.90;21.60;;;;;;;;;;4982043;28;20228;-69
2022/05/30 03:09:52;;;;;;;45.33;21.57;;;;;;;;;;5011291;28;20315;-70
2022/05/30 03:12:38;;;;;;;39.50;19.73;;;;;;;;;;4979632;28;20750;-71
2022/05/30 03:15:05;;;;;;;46.33;20.13;;;;;;;;;;4980382;28;20753;-70
2022/05/30 03:17:32;;;;;;;41.60;20.07;;;;;;;;;;4982243;28;20231;-70
2022/05/30 03:19:58;;;;;;;39.43;19.13;;;;;;;;;;4981866;28;20224;-73
2022/05/30 03:22:25;;;;;;;50.87;19.60;;;;;;;;;;4982365;28;20223;-74
2022/05/30 03:25:11;;;;;;;49.63;19.90;;;;;;;;;;4968302;28;20262;-73
2022/05/30 03:27:38;;;;;;;51.77;19.00;;;;;;;;;;4981712;28;20311;-73
2022/05/30 03:30:05;;;;;;;46.57;18.33;;;;;;;;;;4981378;28;20227;-72
2022/05/30 03:32:33;;;;;;;41.37;18.60;;;;;;;;;;5012482;28;20226;-72
2022/05/30 03:35:00;;;;;;;42.37;19.50;;;;;;;;;;4969945;28;24520;-72
2022/05/30 03:37:30;;;;;;;48.57;18.63;;;;;;;;;;4982134;28;20994;-72
2022/05/30 03:40:16;;;;;;;60.60;18.17;;;;;;;;;;4995428;28;20598;-70
2022/05/30 03:43:00;;;;;;;42.03;16.37;;;;;;;;;;4998797;28;20238;-71
2022/05/30 03:45:27;;;;;;;35.03;16.43;;;;;;;;;;5000999;28;20235;-70
2022/05/30 03:47:54;;;;;;;31.43;16.93;;;;;;;;;;5000698;28;20230;-70
2022/05/30 03:50:24;;;;;;;32.87;16.17;;;;;;;;;;4999497;28;20229;-70
2022/05/30 03:52:56;;;;;;;50.97;15.30;;;;;;;;;;4999506;28;20927;-69
2022/05/30 03:55:23;;;;;;;31.43;16.07;;;;;;;;;;4998317;28;21157;-69
2022/05/30 03:57:51;;;;;;;32.23;15.13;;;;;;;;;;4997632;28;20957;-69
2022/05/30 04:00:19;;;;;;;43.60;15.73;;;;;;;;;;5002332;28;20277;-69
2022/05/30 04:02:48;;;;;;;35.47;16.93;;;;;;;;;;4998377;28;20235;-70
2022/05/30 04:05:16;;;;;;;31.40;17.27;;;;;;;;;;4999507;28;20234;-71
2022/05/30 04:07:44;;;;;;;33.63;17.30;;;;;;;;;;5002473;28;20233;-70
2022/05/30 04:10:34;;;;;;;32.87;18.30;;;;;;;;;;4986576;28;20644;-71
2022/05/30 04:13:34;;;;;;;31.20;17.50;;;;;;;;;;4938047;28;22236;-72
2022/05/30 04:16:29;;;;;;;29.03;17.67;;;;;;;;;;4916660;28;21545;-73
2022/05/30 04:19:01;;;;;;;29.43;16.57;;;;;;;;;;4975583;28;34657;-71
2022/05/30 04:21:46;;;;;;;28.10;17.23;;;;;;;;;;4956984;28;40049;-71
2022/05/30 04:24:20;;;;;;;28.47;17.53;;;;;;;;;;4956388;28;35719;-70
2022/05/30 04:26:57;;;;;;;24.77;15.93;;;;;;;;;;4961482;28;240164;-72
2022/05/30 04:29:24;;;;;;;27.67;17.93;;;;;;;;;;4982642;28;20262;-72
2022/05/30 04:32:17;;;;;;;26.73;17.40;;;;;;;;;;4969464;28;36926;-70
2022/05/30 04:34:45;;;;;;;26.53;17.33;;;;;;;;;;4969142;28;20270;-69
2022/05/30 04:37:12;;;;;;;25.67;17.00;;;;;;;;;;4981667;28;26613;-70
2022/05/30 04:39:43;;;;;;;24.67;16.07;;;;;;;;;;4980048;28;20577;-69
2022/05/30 04:42:30;;;;;;;23.00;15.57;;;;;;;;;;4954788;28;25576;-72
2022/05/30 04:45:15;;;;;;;23.77;16.03;;;;;;;;;;4978151;28;20302;-72
2022/05/30 04:47:53;;;;;;;22.97;15.17;;;;;;;;;;4976948;28;25686;-72
2022/05/30 04:50:20;;;;;;;21.60;14.93;;;;;;;;;;4982939;28;20230;-72
2022/05/30 04:52:47;;;;;;;23.23;16.00;;;;;;;;;;4981218;28;20703;-72
2022/05/30 04:55:43;;;;;;;21.77;14.63;;;;;;;;;;4928164;28;20234;-72
2022/05/30 04:58:20;;;;;;;19.90;13.57;;;;;;;;;;4978091;28;21041;-72
2022/05/30 05:01:04;;;;;;;20.37;13.93;;;;;;;;;;4972598;28;20302;-72
2022/05/30 05:03:32;;;;;;;18.87;13.33;;;;;;;;;;4957557;28;20246;-72
2022/05/30 05:06:02;;;;;;;17.00;12.47;;;;;;;;;;4972832;28;32213;-72
2022/05/30 05:08:32;;;;;;;20.10;12.70;;;;;;;;;;4979402;28;20679;-72
2022/05/30 05:11:24;;;;;;;19.43;12.73;;;;;;;;;;4975202;28;20229;-71
2022/05/30 05:14:09;;;;;;;17.60;12.37;;;;;;;;;;4964450;28;20798;-72
2022/05/30 05:16:54;;;;;;;11.70;8.37;;;;;;;;;;4977249;28;43032;-72
2022/05/30 05:19:23;;;;;;;10.53;8.67;;;;;;;;;;4960872;28;20233;-71
2022/05/30 05:21:50;;;;;;;10.87;8.17;;;;;;;;;;4976146;28;20263;-70
2022/05/30 05:24:19;;;;;;;8.13;7.07;;;;;;;;;;4979936;28;20373;-72
2022/05/30 05:27:05;;;;;;;7.60;6.70;;;;;;;;;;4976719;28;20239;-72
2022/05/30 05:29:32;;;;;;;8.67;6.60;;;;;;;;;;4970373;28;35031;-70
2022/05/30 05:32:01;;;;;;;7.20;6.50;;;;;;;;;;4943052;28;20225;-70
2022/05/30 05:34:28;;;;;;;8.27;6.90;;;;;;;;;;4988937;28;20315;-71
2022/05/30 05:36:55;;;;;;;13.40;11.40;;;;;;;;;;4972595;28;20237;-71
2022/05/30 05:39:24;;;;;;;8.73;6.93;;;;;;;;;;4976952;28;20586;-68
2022/05/30 05:41:53;;;;;;;8.23;7.30;;;;;;;;;;4977010;28;20237;-71
2022/05/30 05:44:20;;;;;;;10.00;7.60;;;;;;;;;;4970237;28;20243;-70
2022/05/30 05:46:47;;;;;;;14.40;11.93;;;;;;;;;;4977266;28;20228;-71
2022/05/30 05:49:16;;;;;;;11.83;9.50;;;;;;;;;;4957601;28;20228;-71
2022/05/30 05:51:42;;;;;;;15.17;13.47;;;;;;;;;;4976146;28;20236;-64
2022/05/30 05:54:11;;;;;;;11.93;10.63;;;;;;;;;;4974827;28;20711;-59
2022/05/30 05:56:38;;;;;;;13.37;10.77;;;;;;;;;;4979609;28;20224;-59
2022/05/30 05:59:18;;;;;;;9.50;7.63;;;;;;;;;;4978458;28;20239;-59
2022/05/30 06:01:45;;;;;;;8.93;7.97;;;;;;;;;;4978089;28;20223;-71
2022/05/30 06:04:12;;;;;;;8.47;7.13;;;;;;;;;;4979926;28;28542;-71
2022/05/30 06:06:42;;;;;;;9.30;8.03;;;;;;;;;;4942615;28;20247;-72
2022/05/30 06:09:25;;;;;;;9.00;7.20;;;;;;;;;;4957419;28;22570;-71
2022/05/30 06:11:56;;;;;;;8.73;7.83;;;;;;;;;;4946968;28;32292;-71
2022/05/30 06:14:23;;;;;;;11.13;8.37;;;;;;;;;;4954435;28;21642;-71
2022/05/30 06:16:52;;;;;;;10.43;8.13;;;;;;;;;;4944925;28;31104;-71
2022/05/30 06:19:20;;;;;;;29.47;26.60;;;;;;;;;;4936018;28;20390;-71
2022/05/30 06:21:47;;;;;;;10.10;8.87;;;;;;;;;;4954005;28;20220;-70
2022/05/30 06:24:15;;;;;;;12.03;9.57;;;;;;;;;;4964277;28;28635;-71
2022/05/30 06:27:02;;;;;;;12.23;9.57;;;;;;;;;;4964076;28;22825;-71
2022/05/30 06:29:38;;;;;;;13.07;10.70;;;;;;;;;;4954277;28;20220;-72
2022/05/30 06:32:06;;;;;;;11.97;10.00;;;;;;;;;;4952109;28;25846;-72
2022/05/30 06:35:06;;;;;;;11.73;10.03;;;;;;;;;;4944888;28;20606;-72
2022/05/30 06:37:35;;;;;;;14.77;12.40;;;;;;;;;;4961796;28;20833;-72
2022/05/30 06:40:03;;;;;;;14.50;10.93;;;;;;;;;;4948037;28;21083;-73
2022/05/30 06:42:38;;;;;;;15.57;11.33;;;;;;;;;;4978704;28;20223;-73
2022/05/30 06:45:24;;;;;;;13.67;11.80;;;;;;;;;;4979309;28;26541;-71
2022/05/30 06:48:09;;;;;;;14.23;11.87;;;;;;;;;;4950488;28;20764;-72
2022/05/30 06:50:50;;;;;;;16.57;11.77;;;;;;;;;;4968599;28;20215;-72
2022/05/30 06:53:17;;;;;;;12.53;11.00;;;;;;;;;;4978883;28;20246;-72
2022/05/30 06:55:51;;;;;;;13.17;10.73;;;;;;;;;;4959419;28;20263;-72
2022/05/30 06:58:19;;;;;;;12.20;10.43;;;;;;;;;;4948847;28;20229;-73
2022/05/30 07:00:46;;;;;;;12.50;10.50;;;;;;;;;;4935106;28;221112;-73
2022/05/30 07:03:32;;;;;;;12.87;9.47;;;;;;;;;;4966166;28;20229;-73
2022/05/30 07:06:19;;;;;;;12.13;10.30;;;;;;;;;;4983688;28;20285;-73
2022/05/30 07:09:05;;;;;;;11.73;10.33;;;;;;;;;;4979267;28;35324;-73
2022/05/30 07:11:39;;;;;;;14.07;10.47;;;;;;;;;;4972323;28;234014;-73
2022/05/30 07:14:12;;;;;;;13.87;11.43;;;;;;;;;;4956707;28;20781;-73
2022/05/30 07:16:40;;;;;;;15.63;11.23;;;;;;;;;;4962588;28;20235;-73
2022/05/30 07:19:09;;;;;;;11.47;9.83;;;;;;;;;;4963297;28;20223;-73
2022/05/30 07:21:56;;;;;;;14.47;11.07;;;;;;;;;;4961787;28;23494;-73
2022/05/30 07:24:42;;;;;;;12.77;10.33;;;;;;;;;;4954726;28;246724;-73
2022/05/30 07:27:37;;;;;;;14.10;10.77;;;;;;;;;;4914290;28;20231;-72
2022/05/30 07:30:23;;;;;;;12.43;9.87;;;;;;;;;;4956362;28;221756;-72
2022/05/30 07:33:08;;;;;;;12.30;9.37;;;;;;;;;;4977464;28;20792;-72
2022/05/30 07:36:22;;;;;;;13.07;10.73;;;;;;;;;;4958801;28;218368;-72
2022/05/30 07:39:12;;;;;;;10.63;8.60;;;;;;;;;;4963306;28;20267;-73
2022/05/30 07:42:14;;;;;;;10.40;8.50;;;;;;;;;;4924620;28;20276;-72
2022/05/30 07:45:11;;;;;;;9.67;8.13;;;;;;;;;;4972505;28;21027;-72
2022/05/30 07:47:55;;;;;;;13.23;8.03;;;;;;;;;;4981296;28;20777;-72
2022/05/30 07:50:41;;;;;;;11.33;8.07;;;;;;;;;;4984400;28;22571;-72
2022/05/30 07:53:38;;;;;;;10.43;8.10;;;;;;;;;;4942174;28;38238;-72
2022/05/30 07:56:20;;;;;;;8.70;7.70;;;;;;;;;;4987703;28;20258;-71
2022/05/30 07:58:50;;;;;;;10.33;8.43;;;;;;;;;;4988105;28;23659;-70
2022/05/30 08:01:18;;;;;;;10.77;8.30;;;;;;;;;;4982340;28;221786;-71
2022/05/30 08:03:47;;;;;;;9.77;8.37;;;;;;;;;;4986716;28;20306;-70
2022/05/30 08:06:32;;;;;;;10.07;7.90;;;;;;;;;;4970337;28;20235;-70
2022/05/30 08:09:22;;;;;;;8.83;7.97;;;;;;;;;;4965390;28;20245;-70
2022/05/30 08:12:01;;;;;;;9.20;8.23;;;;;;;;;;4988190;28;20219;-70
2022/05/30 08:14:54;;;;;;;9.83;7.80;;;;;;;;;;4958624;28;20233;-71
2022/05/30 08:17:25;;;;;;;7.30;6.43;;;;;;;;;;4984277;28;20231;-71
2022/05/30 08:19:52;;;;;;;9.33;7.03;;;;;;;;;;4991161;28;20875;-60
2022/05/30 08:22:22;;;;;;;11.53;7.83;;;;;;;;;;4972868;28;20234;-60
2022/05/30 08:24:52;;;;;;;9.43;7.83;;;;;;;;;;4975336;28;20227;-60
2022/05/30 08:27:22;;;;;;;11.77;7.60;;;;;;;;;;4963472;28;20294;-63
2022/05/30 08:30:07;;;;;;;10.67;7.87;;;;;;;;;;4980622;28;20226;-59
2022/05/30 08:32:39;;;;;;;8.80;7.90;;;;;;;;;;4965663;28;20218;-59
2022/05/30 08:35:24;;;;;;;12.23;7.97;;;;;;;;;;4998084;28;20277;-59
2022/05/30 08:37:55;;;;;;;10.77;7.97;;;;;;;;;;4981443;28;20219;-59
2022/05/30 08:43:12;;;;;;;9.63;8.10;;;;;;;;;;4985769;28;20325;-59
2022/05/30 08:45:48;;;;;;;11.57;7.37;;;;;;;;;;4982591;28;20310;-59
2022/05/30 08:48:41;;;;;;;9.43;7.47;;;;;;;;;;4967885;28;20325;-59
2022/05/30 08:51:13;;;;;;;10.93;7.87;;;;;;;;;;4978632;28;20223;-59
2022/05/30 08:53:42;;;;;;;8.40;6.93;;;;;;;;;;4972732;28;23505;-59
2022/05/30 08:56:35;;;;;;;8.30;6.50;;;;;;;;;;4983211;28;21024;-59
2022/05/30 08:59:53;;;;;;;9.90;7.30;;;;;;;;;;4976574;28;20300;-58
2022/05/30 09:02:27;;;;;;;7.70;6.90;;;;;;;;;;4923551;28;20247;-59
2022/05/30 09:05:06;;;;;;;9.43;6.90;;;;;;;;;;4971485;28;20586;-59
2022/05/30 09:07:54;;;;;;;8.90;6.67;;;;;;;;;;4976320;28;20243;-59
2022/05/30 09:10:32;;;;;;;7.83;6.57;;;;;;;;;;4961455;28;20270;-59
2022/05/30 09:13:06;;;;;;;7.83;6.60;;;;;;;;;;4982173;28;20232;-59
2022/05/30 09:15:57;;;;;;;5.87;5.27;;;;;;;;;;4965216;28;20261;-59
2022/05/30 09:18:27;;;;;;;8.30;6.47;;;;;;;;;;4969854;28;20228;-61
2022/05/30 09:20:56;;;;;;;7.77;6.70;;;;;;;;;;4984151;28;20450;-60
2022/05/30 09:23:24;;;;;;;7.60;6.10;;;;;;;;;;4974607;28;20227;-59
2022/05/30 09:26:00;;;;;;;7.13;6.27;;;;;;;;;;4973637;28;20332;-60
2022/05/30 09:28:33;;;;;;;8.30;6.17;;;;;;;;;;4992127;28;20230;-60
2022/05/30 09:31:20;;;;;;;8.30;6.33;;;;;;;;;;4989323;28;20344;-59
2022/05/30 09:34:29;;;;;;;7.27;5.83;;;;;;;;;;4953003;28;20239;-60
2022/05/30 09:37:33;;;;;;;5.83;4.80;;;;;;;;;;4986575;28;20311;-60
2022/05/30 09:40:10;;;;;;;5.40;4.77;;;;;;;;;;4998906;28;21284;-60
2022/05/30 09:42:49;;;;;;;5.67;4.60;;;;;;;;;;4997817;28;20226;-60
2022/05/30 09:45:27;;;;;;;6.73;4.53;;;;;;;;;;4956728;28;20314;-60
2022/05/30 09:48:20;;;;;;;6.13;4.00;;;;;;;;;;4966658;28;20230;-59
2022/05/30 09:50:56;;;;;;;8.80;4.10;;;;;;;;;;4972407;28;20235;-60
2022/05/30 09:53:45;;;;;;;4.27;3.67;;;;;;;;;;4972184;28;20231;-59
2022/05/30 09:56:18;;;;;;;5.67;3.90;;;;;;;;;;4988915;28;20240;-60
2022/05/30 09:59:34;;;;;;;3.97;3.57;;;;;;;;;;4972853;28;20578;-59
2022/05/30 10:02:36;;;;;;;4.77;4.27;;;;;;;;;;4974901;28;21110;-60
2022/05/30 10:05:04;;;;;;;4.13;3.70;;;;;;;;;;4973981;28;20301;-59
2022/05/30 10:07:32;;;;;;;5.63;3.40;;;;;;;;;;4972467;28;20238;-59
2022/05/30 10:10:39;;;;;;;5.83;3.70;;;;;;;;;;4973406;28;37932;-60
2022/05/30 10:13:10;;;;;;;4.40;3.17;;;;;;;;;;4981831;28;21075;-60
2022/05/30 10:15:58;;;;;;;5.13;3.17;;;;;;;;;;4979241;28;20253;-59
2022/05/30 10:18:29;;;;;;;4.80;3.90;;;;;;;;;;4992394;28;20234;-59
2022/05/30 10:21:08;;;;;;;6.13;3.33;;;;;;;;;;4996753;28;20720;-59
2022/05/30 10:30:54;;;;;;;5.20;3.00;;;;;;;;;;4963402;28;20223;-59
2022/05/30 10:34:00;;;;;;;4.57;3.00;;;;;;;;;;5004228;28;20242;-59
2022/05/30 10:36:50;;;;;;;5.90;3.10;;;;;;;;;;4962958;28;20223;-60
2022/05/30 10:46:08;;;;;;;5.87;2.90;;;;;;;;;;4856800;29;20219;-60
2022/05/30 10:52:30;;;;;;;4.73;3.60;;;;;;;;;;4857224;29;21009;-59
2022/05/30 10:58:58;;;;;;;4.03;3.43;;;;;;;;;;4857063;29;20312;-59
2022/05/30 11:01:29;;;;;;;4.93;3.40;;;;;;;;;;4856480;29;20193;-67
2022/05/30 11:04:08;;;;;;;5.13;3.40;;;;;;;;;;4836366;29;20220;-69
2022/05/30 11:06:37;;;;;;;4.43;3.40;;;;;;;;;;4857300;29;20257;-68
2022/05/30 11:09:14;;;;;;;3.40;2.90;;;;;;;;;;4843496;29;20256;-67
2022/05/30 11:11:54;;;;;;;5.70;3.73;;;;;;;;;;4853136;29;20224;-68
2022/05/30 11:14:36;;;;;;;5.43;4.60;;;;;;;;;;4853016;29;20360;-67
2022/05/30 11:17:38;;;;;;;5.13;4.07;;;;;;;;;;4806184;29;20262;-68
2022/05/30 11:20:23;;;;;;;4.70;3.93;;;;;;;;;;4857597;29;20382;-69
2022/05/30 11:22:54;;;;;;;4.97;3.83;;;;;;;;;;4847915;29;20571;-68
2022/05/30 11:25:30;;;;;;;4.77;3.40;;;;;;;;;;4842816;29;20207;-67
2022/05/30 11:28:03;;;;;;;5.50;3.70;;;;;;;;;;4855539;29;20235;-67
2022/05/30 11:30:31;;;;;;;4.90;3.27;;;;;;;;;;4858007;29;20209;-67
2022/05/30 11:32:58;;;;;;;4.70;3.30;;;;;;;;;;4856396;29;20197;-67
2022/05/30 11:35:38;;;;;;;6.77;3.77;;;;;;;;;;4858850;29;20652;-70
2022/05/30 11:38:23;;;;;;;3.50;3.17;;;;;;;;;;4845192;29;20716;-67
2022/05/30 11:40:50;;;;;;;5.23;3.70;;;;;;;;;;4856164;29;20244;-67
2022/05/30 11:43:28;;;;;;;5.00;2.80;;;;;;;;;;4860435;29;20237;-66
2022/05/30 11:46:13;;;;;;;5.70;2.90;;;;;;;;;;4844329;29;20249;-67
2022/05/30 11:48:46;;;;;;;4.83;2.37;;;;;;;;;;4862640;29;20198;-67
2022/05/30 11:51:31;;;;;;;4.20;2.40;;;;;;;;;;4856354;29;20264;-68
2022/05/30 11:53:58;;;;;;;4.27;2.90;;;;;;;;;;4840349;29;20212;-68
2022/05/30 11:56:26;;;;;;;3.23;2.50;;;;;;;;;;4852412;29;20208;-67
2022/05/30 11:59:03;;;;;;;3.37;2.70;;;;;;;;;;4839552;29;20208;-67
2022/05/30 12:01:49;;;;;;;3.60;3.03;;;;;;;;;;4852723;29;20557;-67
2022/05/30 12:04:22;;;;;;;4.43;3.30;;;;;;;;;;4857162;29;20194;-67
2022/05/30 12:06:53;;;;;;;2.97;2.50;;;;;;;;;;4856468;29;20221;-69
2022/05/30 12:09:38;;;;;;;3.17;2.70;;;;;;;;;;4855757;29;20202;-68
2022/05/30 12:12:18;;;;;;;2.60;2.40;;;;;;;;;;4840313;29;20614;-68
2022/05/30 12:14:45;;;;;;;3.73;2.70;;;;;;;;;;4837808;29;20273;-68
2022/05/30 12:23:47;;;;;;;5.73;2.90;;;;;;;;;;4851906;29;20188;-68
2022/05/30 12:26:11;;;;;;;5.33;3.37;;;;;;;;;;4822329;29;20222;-70
2022/05/30 12:28:37;;;;;;;5.33;3.13;;;;;;;;;;4855236;29;20614;-67
2022/05/30 12:31:05;;;;;;;4.20;3.40;;;;;;;;;;4856976;29;20553;-68
2022/05/30 12:33:36;;;;;;;7.07;3.70;;;;;;;;;;4858834;29;20240;-68
2022/05/30 12:36:09;;;;;;;4.63;4.10;;;;;;;;;;4839817;29;20229;-68
2022/05/30 12:38:49;;;;;;;7.03;3.60;;;;;;;;;;4856098;29;20549;-67
2022/05/30 12:41:38;;;;;;;6.27;3.90;;;;;;;;;;4850717;29;20311;-68
2022/05/30 12:44:24;;;;;;;4.73;3.67;;;;;;;;;;4849674;29;20240;-67
2022/05/30 12:47:01;;;;;;;6.03;3.80;;;;;;;;;;4856900;29;20197;-65
2022/05/30 12:49:30;;;;;;;4.50;3.63;;;;;;;;;;4844993;29;20213;-65
2022/05/30 12:51:57;;;;;;;7.10;4.67;;;;;;;;;;4847633;29;20198;-66
2022/05/30 12:54:29;;;;;;;4.10;3.63;;;;;;;;;;4858095;29;20289;-65
2022/05/30 12:57:01;;;;;;;4.30;3.63;;;;;;;;;;4858299;29;20254;-66
2022/05/30 12:59:33;;;;;;;5.67;3.57;;;;;;;;;;4854512;29;20205;-65
2022/05/30 13:02:02;;;;;;;4.03;3.63;;;;;;;;;;4861164;29;20269;-66
2022/05/30 13:04:30;;;;;;;5.97;4.10;;;;;;;;;;4857097;29;20744;-66
2022/05/30 13:07:01;;;;;;;3.90;3.50;;;;;;;;;;4839798;29;20261;-65
2022/05/30 13:09:33;;;;;;;4.27;3.33;;;;;;;;;;4857931;29;20200;-67
2022/05/30 13:12:04;;;;;;;3.47;3.10;;;;;;;;;;4858255;29;21096;-66
2022/05/30 13:14:36;;;;;;;4.97;2.70;;;;;;;;;;4858249;29;20205;-66
2022/05/30 13:17:18;;;;;;;3.57;2.63;;;;;;;;;;4857892;29;20209;-65
2022/05/30 13:20:07;;;;;;;4.10;2.70;;;;;;;;;;4852233;29;20270;-66
2022/05/30 13:22:42;;;;;;;5.37;2.73;;;;;;;;;;4856028;29;20684;-65
2022/05/30 13:25:10;;;;;;;2.30;1.77;;;;;;;;;;4853622;29;20287;-66
2022/05/30 13:27:37;;;;;;;2.70;2.20;;;;;;;;;;4860252;29;20560;-65
2022/05/30 13:30:08;;;;;;;3.63;2.40;;;;;;;;;;4861816;29;20681;-65
2022/05/30 13:32:36;;;;;;;2.67;2.30;;;;;;;;;;4846535;29;20347;-66
2022/05/30 13:35:04;;;;;;;2.27;1.80;;;;;;;;;;4839085;29;20224;-65
2022/05/30 13:37:31;;;;;;;3.10;1.90;;;;;;;;;;4857882;29;20205;-67
2022/05/30 13:40:00;;;;;;;2.30;2.10;;;;;;;;;;4852334;29;20202;-67
2022/05/30 13:42:45;;;;;;;4.10;1.90;;;;;;;;;;4841231;29;20879;-67
2022/05/30 13:45:23;;;;;;;2.77;1.80;;;;;;;;;;4840401;29;20224;-67
2022/05/30 13:48:04;;;;;;;1.93;1.73;;;;;;;;;;4851871;29;20236;-67
2022/05/30 13:50:59;;;;;;;1.70;1.60;;;;;;;;;;4856737;29;20231;-67
2022/05/30 13:53:34;;;;;;;2.90;2.00;;;;;;;;;;4825505;29;20208;-68
2022/05/30 13:56:07;;;;;;;3.80;2.00;;;;;;;;;;4854998;29;20231;-67
2022/05/30 13:58:36;;;;;;;3.73;1.80;;;;;;;;;;4858599;29;20859;-65
2022/05/30 14:01:06;;;;;;;2.57;1.73;;;;;;;;;;4841147;29;20277;-65
2022/05/30 14:03:33;;;;;;;2.70;2.00;;;;;;;;;;4837736;29;20538;-65
2022/05/30 14:06:00;;;;;;;1.57;1.47;;;;;;;;;;4854001;29;20281;-66
2022/05/30 14:08:36;;;;;;;1.53;1.23;;;;;;;;;;4855848;29;20198;-66
2022/05/30 14:11:06;;;;;;;2.30;1.30;;;;;;;;;;4852622;29;20205;-65
2022/05/30 14:13:54;;;;;;;2.00;1.63;;;;;;;;;;4853212;29;20254;-63
2022/05/30 14:16:34;;;;;;;2.00;1.80;;;;;;;;;;4851912;29;20229;-64
2022/05/30 14:19:25;;;;;;;2.27;1.63;;;;;;;;;;4840943;29;20177;-64
2022/05/30 14:21:54;;;;;;;2.07;1.80;;;;;;;;;;4847743;29;20206;-63
2022/05/30 14:24:30;;;;;;;2.40;1.53;;;;;;;;;;4837843;29;20202;-64
2022/05/30 14:26:57;;;;;;;2.67;1.47;;;;;;;;;;4855178;29;20630;-64
2022/05/30 14:29:44;;;;;;;1.73;1.43;;;;;;;;;;4855323;29;20181;-64
2022/05/30 14:32:17;;;;;;;1.60;1.50;;;;;;;;;;4838843;29;20212;-63
2022/05/30 14:35:04;;;;;;;2.13;1.53;;;;;;;;;;4856633;29;20190;-63
2022/05/30 14:37:34;;;;;;;2.00;1.30;;;;;;;;;;4851437;29;20214;-65
2022/05/30 14:40:10;;;;;;;1.97;1.60;;;;;;;;;;4832766;29;20508;-68
2022/05/30 14:42:43;;;;;;;1.83;1.50;;;;;;;;;;4845177;29;20197;-65
2022/05/30 14:45:12;;;;;;;2.03;1.50;;;;;;;;;;4857291;29;20208;-65
2022/05/30 14:47:43;;;;;;;3.67;2.00;;;;;;;;;;4848548;29;20201;-67
2022/05/30 14:50:11;;;;;;;3.03;2.30;;;;;;;;;;4838831;29;20217;-70
2022/05/30 14:52:38;;;;;;;1.43;1.33;;;;;;;;;;4846916;29;20228;-70
2022/05/30 14:55:10;;;;;;;3.17;1.70;;;;;;;;;;4858332;29;20377;-69
2022/05/30 14:57:44;;;;;;;2.87;1.77;;;;;;;;;;4844189;29;20203;-70
2022/05/30 15:00:24;;;;;;;3.10;2.30;;;;;;;;;;4860902;29;20733;-70
2022/05/30 15:05:54;;;;;;;2.80;1.67;;;;;;;;;;4841327;29;20246;-70
2022/05/30 15:08:22;;;;;;;3.27;1.80;;;;;;;;;;4841931;29;21045;-69
2022/05/30 15:10:48;;;;;;;4.00;1.83;;;;;;;;;;4841581;29;20192;-69
2022/05/30 15:13:15;;;;;;;3.83;2.20;;;;;;;;;;4824863;29;20258;-70
2022/05/30 15:15:43;;;;;;;3.23;2.23;;;;;;;;;;4819542;29;20232;-69
2022/05/30 15:18:13;;;;;;;3.77;2.10;;;;;;;;;;4839082;29;20217;-69
2022/05/30 15:20:41;;;;;;;3.83;1.93;;;;;;;;;;4839213;29;20312;-69
2022/05/30 15:23:07;;;;;;;2.43;1.80;;;;;;;;;;4839217;29;20574;-69
2022/05/30 15:25:34;;;;;;;4.07;2.60;;;;;;;;;;4838078;29;20226;-69
2022/05/30 15:28:01;;;;;;;2.40;2.00;;;;;;;;;;4839354;29;21064;-69
2022/05/30 15:30:27;;;;;;;2.40;1.87;;;;;;;;;;4839398;29;20202;-69
2022/05/30 15:32:54;;;;;;;3.00;1.80;;;;;;;;;;4838167;29;20302;-69
2022/05/30 15:35:26;;;;;;;2.00;1.80;;;;;;;;;;4822630;29;20296;-69
2022/05/30 15:37:52;;;;;;;3.93;2.20;;;;;;;;;;4838674;29;20205;-69
2022/05/30 15:40:19;;;;;;;3.03;1.80;;;;;;;;;;4837241;29;20262;-70
2022/05/30 15:42:49;;;;;;;2.40;1.63;;;;;;;;;;4837529;29;20266;-68
2022/05/30 15:45:24;;;;;;;3.10;1.60;;;;;;;;;;4814242;29;20471;-70
2022/05/30 15:47:53;;;;;;;3.43;1.87;;;;;;;;;;4836696;29;20205;-70
2022/05/30 15:50:20;;;;;;;2.53;1.80;;;;;;;;;;4833490;29;20217;-70
2022/05/30 15:58:17;;;;;;;2.30;1.80;;;;;;;;;;4838533;29;20204;-70
2022/05/30 16:00:44;;;;;;;1.67;1.57;;;;;;;;;;4843132;29;20209;-68